Time;durP1;ratioP1;P1;durP2;ratioP2;P2;SDS_P1;SDS_P2;PMS_P1;PMS_P2;Temp;Humidity;BMP_temperature;BMP_pressure;BME280_temperature;BME280_humidity;BME280_pressure;Samples;Min_cycle;Max_cycle;Signal;HPM_P1;HPM_P2
2022/11/15 00:01:48;;;;;;;14.02;8.85;;;7.50;99.90;;;;;;4911917;29;20063;-69
2022/11/15 00:04:34;;;;;;;15.75;8.90;;;7.50;99.90;;;;;;4911091;29;20063;-69
2022/11/15 00:07:21;;;;;;;11.77;8.48;;;7.60;99.90;;;;;;4913443;29;20396;-71
2022/11/15 00:10:27;;;;;;;12.63;8.80;;;7.50;99.90;;;;;;4909688;29;20202;-71
2022/11/15 00:13:14;;;;;;;12.55;8.57;;;7.60;99.90;;;;;;4914329;29;20044;-71
2022/11/15 00:16:01;;;;;;;13.57;8.32;;;7.60;99.90;;;;;;4913731;29;20036;-70
2022/11/15 00:18:48;;;;;;;12.30;7.93;;;7.60;99.90;;;;;;4912407;29;20091;-71
2022/11/15 00:21:35;;;;;;;14.07;8.27;;;7.60;99.90;;;;;;4914497;29;20153;-71
2022/11/15 00:24:21;;;;;;;11.50;8.02;;;7.70;99.90;;;;;;4910476;29;20176;-68
2022/11/15 00:27:07;;;;;;;12.65;8.00;;;7.70;99.90;;;;;;4910232;29;20056;-70
2022/11/15 00:29:54;;;;;;;13.30;8.52;;;7.80;99.90;;;;;;4909917;29;20058;-71
2022/11/15 00:32:39;;;;;;;13.48;9.30;;;7.80;99.90;;;;;;4914373;29;20396;-71
2022/11/15 00:35:25;;;;;;;12.35;8.43;;;7.80;99.90;;;;;;4901604;29;20524;-69
2022/11/15 00:38:10;;;;;;;13.45;9.00;;;7.70;99.90;;;;;;4913591;29;20120;-69
2022/11/15 00:40:57;;;;;;;13.05;8.75;;;7.70;99.90;;;;;;4914448;29;20056;-69
2022/11/15 00:43:43;;;;;;;13.60;8.60;;;7.70;99.90;;;;;;4913706;29;20047;-69
2022/11/15 00:46:29;;;;;;;16.38;9.05;;;7.60;99.90;;;;;;4913137;29;20051;-68
2022/11/15 00:49:15;;;;;;;15.25;9.30;;;7.60;99.90;;;;;;4885421;29;20487;-70
2022/11/15 00:52:01;;;;;;;15.75;8.88;;;7.50;99.90;;;;;;4908459;29;20125;-69
2022/11/15 00:54:46;;;;;;;13.40;8.82;;;7.50;99.90;;;;;;4905950;29;20051;-69
2022/11/15 00:57:32;;;;;;;13.77;8.20;;;7.50;99.90;;;;;;4901281;29;20048;-70
2022/11/15 01:00:19;;;;;;;14.18;8.35;;;7.50;99.90;;;;;;4913587;29;20047;-71
2022/11/15 01:03:04;;;;;;;13.10;8.55;;;7.50;99.90;;;;;;4907231;29;20051;-69
2022/11/15 01:05:50;;;;;;;14.02;9.27;;;7.50;99.90;;;;;;4913887;29;20463;-69
2022/11/15 01:08:37;;;;;;;16.27;10.02;;;7.50;99.90;;;;;;4913432;29;20043;-70
2022/11/15 01:11:23;;;;;;;16.27;9.13;;;7.50;99.90;;;;;;4913736;29;20051;-71
2022/11/15 01:14:08;;;;;;;11.50;7.95;;;7.40;99.90;;;;;;4913843;29;20048;-70
2022/11/15 01:16:54;;;;;;;12.13;8.63;;;7.40;99.90;;;;;;4913645;29;20478;-70
2022/11/15 01:19:40;;;;;;;13.68;9.25;;;7.30;99.90;;;;;;4913740;29;20052;-70
2022/11/15 01:22:27;;;;;;;12.70;8.75;;;7.30;99.90;;;;;;4912173;29;20040;-69
2022/11/15 01:25:13;;;;;;;13.43;8.68;;;7.30;99.90;;;;;;4912374;29;20415;-70
2022/11/15 01:27:59;;;;;;;17.10;9.95;;;7.30;99.90;;;;;;4912435;29;20044;-70
2022/11/15 01:30:45;;;;;;;13.20;8.82;;;7.30;99.90;;;;;;4913830;29;20040;-70
2022/11/15 01:33:35;;;;;;;14.70;10.18;;;7.30;99.90;;;;;;4896088;29;20036;-70
2022/11/15 01:36:23;;;;;;;18.30;9.70;;;7.30;99.90;;;;;;4910561;29;20056;-71
2022/11/15 01:39:09;;;;;;;14.25;9.10;;;7.20;99.90;;;;;;4908421;29;20044;-70
2022/11/15 01:41:55;;;;;;;13.20;8.93;;;7.20;99.90;;;;;;4912253;29;20052;-70
2022/11/15 01:44:45;;;;;;;13.75;9.15;;;7.10;99.90;;;;;;4902178;29;20463;-70
2022/11/15 01:47:37;;;;;;;11.77;8.45;;;7.10;99.90;;;;;;4910173;29;20392;-70
2022/11/15 01:50:29;;;;;;;12.87;8.73;;;7.10;99.90;;;;;;4914398;29;20087;-71
2022/11/15 01:53:16;;;;;;;12.93;8.95;;;7.00;99.90;;;;;;4915982;29;20079;-69
2022/11/15 01:56:08;;;;;;;13.80;9.82;;;7.00;99.90;;;;;;4917307;29;20131;-70
2022/11/15 01:58:56;;;;;;;15.53;8.57;;;7.00;99.90;;;;;;4904146;29;20044;-68
2022/11/15 02:01:43;;;;;;;14.57;9.20;;;7.00;99.90;;;;;;4910358;29;20529;-70
2022/11/15 02:04:32;;;;;;;13.93;9.40;;;7.00;99.90;;;;;;4907633;29;20107;-70
2022/11/15 02:07:21;;;;;;;14.63;8.68;;;7.00;99.90;;;;;;4917024;29;20530;-70
2022/11/15 02:10:17;;;;;;;13.52;9.20;;;7.00;99.90;;;;;;4909352;29;20075;-70
2022/11/15 02:13:03;;;;;;;13.15;9.07;;;7.00;99.90;;;;;;4905232;29;20050;-70
2022/11/15 02:16:18;;;;;;;14.00;9.73;;;7.10;99.90;;;;;;4914957;29;20052;-70
2022/11/15 02:19:33;;;;;;;13.82;8.77;;;7.10;99.90;;;;;;4914736;29;20059;-70
2022/11/15 02:22:43;;;;;;;12.45;8.68;;;7.10;99.90;;;;;;4889587;29;20078;-69
2022/11/15 02:25:51;;;;;;;15.27;9.82;;;7.10;99.90;;;;;;4916559;29;20102;-70
2022/11/15 02:28:55;;;;;;;12.18;8.48;;;7.10;99.90;;;;;;4915265;29;20044;-69
2022/11/15 02:31:57;;;;;;;12.55;9.15;;;7.10;99.90;;;;;;4906748;29;20071;-70
2022/11/15 02:35:00;;;;;;;15.00;8.88;;;7.10;99.90;;;;;;4909664;29;20571;-68
2022/11/15 02:37:57;;;;;;;12.65;8.63;;;7.10;99.90;;;;;;4916624;29;20059;-69
2022/11/15 02:41:06;;;;;;;13.85;8.77;;;7.10;99.90;;;;;;4904984;29;20127;-70
2022/11/15 02:44:28;;;;;;;13.77;8.13;;;7.10;99.90;;;;;;4911509;29;20856;-69
2022/11/15 02:47:17;;;;;;;12.50;9.05;;;7.00;99.90;;;;;;4914635;29;20040;-69
2022/11/15 02:50:12;;;;;;;17.80;9.18;;;6.90;99.90;;;;;;4916219;29;20047;-68
2022/11/15 02:52:58;;;;;;;14.00;9.35;;;6.90;99.90;;;;;;4916353;29;20048;-69
2022/11/15 02:55:48;;;;;;;12.77;8.95;;;6.80;99.90;;;;;;4909595;29;20492;-70
2022/11/15 02:59:18;;;;;;;12.73;8.57;;;6.80;99.90;;;;;;4910194;29;20063;-70
2022/11/15 03:02:40;;;;;;;12.77;8.20;;;6.70;99.90;;;;;;4899811;29;20143;-70
2022/11/15 03:05:35;;;;;;;14.35;9.20;;;6.60;99.90;;;;;;4916209;29;20080;-70
2022/11/15 03:08:57;;;;;;;14.25;8.95;;;6.60;99.90;;;;;;4916073;29;20044;-69
2022/11/15 03:11:50;;;;;;;14.82;9.18;;;6.50;99.90;;;;;;4907469;29;20405;-69
2022/11/15 03:14:58;;;;;;;14.07;8.82;;;6.50;99.90;;;;;;4912784;29;20052;-69
2022/11/15 03:17:56;;;;;;;12.95;9.43;;;6.50;99.90;;;;;;4913283;29;20044;-70
2022/11/15 03:20:43;;;;;;;12.38;7.97;;;6.40;99.90;;;;;;4912378;29;20048;-69
2022/11/15 03:23:31;;;;;;;13.32;9.57;;;6.40;99.90;;;;;;4905536;29;20183;-70
2022/11/15 03:26:21;;;;;;;14.27;8.98;;;6.30;99.90;;;;;;4913195;29;20044;-70
2022/11/15 03:29:16;;;;;;;14.45;8.82;;;6.30;99.90;;;;;;4900451;29;20129;-69
2022/11/15 03:32:18;;;;;;;12.05;8.63;;;6.30;99.90;;;;;;4906090;29;20574;-68
2022/11/15 03:35:11;;;;;;;12.35;8.55;;;6.20;99.90;;;;;;4914499;29;20100;-70
2022/11/15 03:38:19;;;;;;;15.95;9.32;;;6.20;99.90;;;;;;4914362;29;20526;-70
2022/11/15 03:41:10;;;;;;;12.27;8.55;;;6.20;99.90;;;;;;4914711;29;20217;-69
2022/11/15 03:44:25;;;;;;;13.45;8.80;;;6.10;99.90;;;;;;4912321;29;20070;-70
2022/11/15 03:47:33;;;;;;;13.93;9.38;;;6.10;99.90;;;;;;4885727;29;20382;-69
2022/11/15 03:50:20;;;;;;;13.48;8.63;;;6.10;99.90;;;;;;4864145;29;20741;-69
2022/11/15 03:53:08;;;;;;;13.73;9.05;;;6.10;99.90;;;;;;4892585;29;20506;-69
2022/11/15 03:55:53;;;;;;;13.02;8.30;;;6.10;99.90;;;;;;4890415;29;20094;-69
2022/11/15 03:58:39;;;;;;;13.35;8.93;;;6.20;99.90;;;;;;4892343;29;20082;-69
2022/11/15 04:01:26;;;;;;;12.00;8.50;;;6.30;99.90;;;;;;4893945;29;20500;-68
2022/11/15 04:04:12;;;;;;;13.10;8.27;;;6.30;99.90;;;;;;4877672;29;20052;-70
2022/11/15 04:06:58;;;;;;;11.73;7.95;;;6.30;99.90;;;;;;4892453;29;20048;-70
2022/11/15 04:10:01;;;;;;;12.65;8.32;;;6.30;99.90;;;;;;4892303;29;20523;-69
2022/11/15 04:12:48;;;;;;;13.13;8.57;;;6.30;99.90;;;;;;4877353;29;20040;-69
2022/11/15 04:15:34;;;;;;;10.98;8.02;;;6.30;99.90;;;;;;4892848;29;20048;-70
2022/11/15 04:18:20;;;;;;;10.63;7.80;;;6.30;99.90;;;;;;4881583;29;20168;-69
2022/11/15 04:24:12;;;;;;;13.07;7.88;;;6.20;99.90;;;;;;4909566;29;20071;-70
2022/11/15 04:26:59;;;;;;;14.00;7.88;;;6.20;99.90;;;;;;4914433;29;20044;-68
2022/11/15 04:29:45;;;;;;;11.75;8.23;;;6.20;99.90;;;;;;4912674;29;20051;-69
2022/11/15 04:32:31;;;;;;;10.25;7.85;;;6.10;99.90;;;;;;4900348;29;20055;-70
2022/11/15 04:35:17;;;;;;;11.95;8.02;;;6.10;99.90;;;;;;4904279;29;20036;-69
2022/11/15 04:38:04;;;;;;;10.50;7.57;;;6.10;99.90;;;;;;4899295;29;20176;-68
2022/11/15 04:40:50;;;;;;;13.32;7.55;;;6.00;99.90;;;;;;4914632;29;20419;-70
2022/11/15 04:43:36;;;;;;;12.65;7.85;;;6.10;99.90;;;;;;4911311;29;20064;-68
2022/11/15 04:46:23;;;;;;;15.25;8.88;;;6.00;99.90;;;;;;4913765;29;20099;-69
2022/11/15 04:49:09;;;;;;;12.20;8.27;;;6.00;99.90;;;;;;4910792;29;20466;-69
2022/11/15 04:51:55;;;;;;;11.85;7.60;;;6.00;99.90;;;;;;4911639;29;20051;-69
2022/11/15 04:54:42;;;;;;;10.75;7.50;;;5.90;99.90;;;;;;4910957;29;20052;-69
2022/11/15 04:57:28;;;;;;;10.55;7.22;;;5.90;99.90;;;;;;4911088;29;20037;-69
2022/11/15 05:00:17;;;;;;;10.82;7.43;;;5.80;99.90;;;;;;4911056;29;20481;-69
2022/11/15 05:06:07;;;;;;;13.23;8.27;;;5.80;99.90;;;;;;4913394;29;20423;-70
2022/11/15 05:08:54;;;;;;;11.73;7.88;;;5.80;99.90;;;;;;4912147;29;20112;-68
2022/11/15 05:11:41;;;;;;;12.13;8.27;;;5.80;99.90;;;;;;4911128;29;20045;-69
2022/11/15 05:14:27;;;;;;;10.85;7.63;;;5.70;99.90;;;;;;4913132;29;20514;-69
2022/11/15 05:17:13;;;;;;;11.35;7.35;;;5.80;99.90;;;;;;4912064;29;20516;-70
2022/11/15 05:19:58;;;;;;;12.35;7.72;;;5.80;99.90;;;;;;4910783;29;20048;-68
2022/11/15 05:22:44;;;;;;;12.60;7.82;;;5.80;99.90;;;;;;4910193;29;20052;-70
2022/11/15 05:25:30;;;;;;;14.50;7.93;;;5.80;99.90;;;;;;4907647;29;20481;-70
2022/11/15 05:28:16;;;;;;;13.32;8.15;;;5.80;99.90;;;;;;4898651;29;20076;-70
2022/11/15 05:31:08;;;;;;;12.43;7.55;;;5.70;99.90;;;;;;4893814;29;20040;-68
2022/11/15 05:33:55;;;;;;;;;;;5.70;99.90;;;;;;4912642;29;20578;-71
2022/11/15 05:36:42;;;;;;;13.45;8.25;;;5.70;99.90;;;;;;4913530;29;20113;-69
2022/11/15 05:39:28;;;;;;;17.83;9.32;;;5.70;99.90;;;;;;4909215;29;20059;-69
2022/11/15 05:42:16;;;;;;;15.02;8.27;;;5.70;99.90;;;;;;4913250;29;20051;-69
2022/11/15 05:45:04;;;;;;;14.13;8.60;;;5.70;99.90;;;;;;4912051;29;20151;-69
2022/11/15 05:47:52;;;;;;;16.00;8.70;;;5.70;99.90;;;;;;4912916;29;20051;-69
2022/11/15 05:50:41;;;;;;;12.55;7.90;;;5.70;99.90;;;;;;4913684;29;20040;-68
2022/11/15 05:53:27;;;;;;;15.27;8.50;;;5.70;99.90;;;;;;4906142;29;20048;-69
2022/11/15 05:56:14;;;;;;;16.33;9.40;;;5.70;99.90;;;;;;4910644;29;20044;-69
2022/11/15 05:59:00;;;;;;;14.60;8.60;;;5.80;99.90;;;;;;4895004;29;20044;-68
2022/11/15 06:01:46;;;;;;;14.32;8.43;;;5.90;99.90;;;;;;4908891;29;20551;-69
2022/11/15 06:04:32;;;;;;;13.68;8.00;;;5.90;99.90;;;;;;4913418;29;20432;-70
2022/11/15 06:07:18;;;;;;;14.32;8.57;;;5.90;99.90;;;;;;4912119;29;20041;-69
2022/11/15 06:10:05;;;;;;;11.95;7.28;;;5.90;99.90;;;;;;4911949;29;20367;-69
2022/11/15 06:13:02;;;;;;;17.60;8.43;;;5.90;99.90;;;;;;4890969;29;20072;-69
2022/11/15 06:15:48;;;;;;;13.90;8.43;;;5.90;99.90;;;;;;4911909;29;20059;-69
2022/11/15 06:18:34;;;;;;;14.40;8.00;;;5.90;99.90;;;;;;4913211;29;20044;-70
2022/11/15 06:21:21;;;;;;;20.60;11.60;;;5.90;99.90;;;;;;4914697;29;20052;-68
2022/11/15 06:24:07;;;;;;;14.77;8.55;;;5.90;99.90;;;;;;4916818;29;20529;-68
2022/11/15 06:26:53;;;;;;;14.13;8.15;;;5.90;99.90;;;;;;4912965;29;20176;-69
2022/11/15 06:29:39;;;;;;;13.65;7.38;;;5.90;99.90;;;;;;4911161;29;20043;-69
2022/11/15 06:32:25;;;;;;;14.35;7.50;;;6.00;99.90;;;;;;4912660;29;20460;-70
2022/11/15 06:35:11;;;;;;;12.95;8.48;;;6.10;99.90;;;;;;4915272;29;20147;-70
2022/11/15 06:38:05;;;;;;;13.73;7.90;;;6.10;99.90;;;;;;4912557;29;20040;-69
2022/11/15 06:40:51;;;;;;;13.07;8.00;;;6.10;99.90;;;;;;4911169;29;20040;-70
2022/11/15 06:43:38;;;;;;;21.05;8.48;;;6.10;99.90;;;;;;4912351;29;20135;-70
2022/11/15 06:46:24;;;;;;;16.80;8.15;;;6.10;99.90;;;;;;4910975;29;20067;-70
2022/11/15 06:49:10;;;;;;;15.93;7.80;;;6.20;99.90;;;;;;4912191;29;20161;-70
2022/11/15 06:51:55;;;;;;;13.60;7.60;;;6.20;99.90;;;;;;4913827;29;20189;-70
2022/11/15 06:54:41;;;;;;;12.45;8.30;;;6.20;99.90;;;;;;4912941;29;20043;-69
2022/11/15 06:57:27;;;;;;;15.30;8.13;;;6.30;99.90;;;;;;4915874;29;20048;-70
2022/11/15 07:00:14;;;;;;;13.65;7.10;;;6.30;99.90;;;;;;4913265;29;20508;-70
2022/11/15 07:03:00;;;;;;;13.45;7.65;;;6.40;99.90;;;;;;4914972;29;20079;-70
2022/11/15 07:05:55;;;;;;;13.65;7.35;;;6.50;99.90;;;;;;4924901;29;20534;-69
2022/11/15 07:08:41;;;;;;;13.18;7.78;;;6.50;99.90;;;;;;4908713;29;20055;-70
2022/11/15 07:11:27;;;;;;;14.75;7.70;;;6.60;99.90;;;;;;4914430;29;20127;-72
2022/11/15 07:14:13;;;;;;;13.57;7.93;;;6.60;99.90;;;;;;4900844;29;20099;-71
2022/11/15 07:16:59;;;;;;;14.52;7.60;;;6.70;99.90;;;;;;4915847;29;20495;-67
2022/11/15 07:19:45;;;;;;;16.15;9.43;;;6.90;99.90;;;;;;4910513;29;20507;-69
2022/11/15 07:22:31;;;;;;;21.60;8.57;;;6.90;99.90;;;;;;4911615;29;20054;-68
2022/11/15 07:25:17;;;;;;;17.85;8.50;;;7.00;99.90;;;;;;4914028;29;20058;-69
2022/11/15 07:28:02;;;;;;;12.48;8.15;;;7.00;99.90;;;;;;4899034;29;20052;-69
2022/11/15 07:30:49;;;;;;;12.82;7.28;;;7.10;99.90;;;;;;4924151;29;20076;-69
2022/11/15 07:33:35;;;;;;;13.77;7.57;;;7.10;99.90;;;;;;4909449;29;20174;-70
2022/11/15 07:36:21;;;;;;;12.68;7.43;;;7.20;99.90;;;;;;4913299;29;20048;-69
2022/11/15 07:39:08;;;;;;;13.85;7.95;;;7.30;99.90;;;;;;4911769;29;20051;-70
2022/11/15 07:42:52;;;;;;;11.43;7.13;;;7.40;99.90;;;;;;4911169;29;20036;-70
2022/11/15 07:44:59;;;;;;;11.30;7.40;;;7.50;99.90;;;;;;4911418;29;20123;-70
2022/11/15 07:47:49;;;;;;;12.43;7.00;;;7.60;99.90;;;;;;4906303;29;20064;-70
2022/11/15 07:50:35;;;;;;;12.23;6.78;;;7.70;99.90;;;;;;4925609;29;20496;-68
2022/11/15 07:53:21;;;;;;;13.90;8.93;;;7.70;99.90;;;;;;4913617;29;20156;-69
2022/11/15 07:56:07;;;;;;;15.68;8.27;;;7.80;99.90;;;;;;4913867;29;20040;-69
2022/11/15 07:58:54;;;;;;;14.02;7.53;;;7.80;99.90;;;;;;4928099;29;20119;-69
2022/11/15 08:01:40;;;;;;;13.38;8.60;;;7.90;99.90;;;;;;4909223;29;20055;-69
2022/11/15 08:04:26;;;;;;;16.42;8.60;;;8.00;99.90;;;;;;4914135;29;20032;-69
2022/11/15 08:07:12;;;;;;;14.18;7.97;;;8.00;99.90;;;;;;4912667;29;20516;-71
2022/11/15 08:10:00;;;;;;;12.13;7.47;;;8.10;99.90;;;;;;4914142;29;20451;-69
2022/11/15 08:12:46;;;;;;;18.90;11.00;;;8.20;99.90;;;;;;4914043;29;20053;-68
2022/11/15 08:15:34;;;;;;;13.95;8.00;;;8.40;99.90;;;;;;4913484;29;20037;-69
2022/11/15 08:18:20;;;;;;;13.18;7.85;;;8.50;99.90;;;;;;4904714;29;20044;-69
2022/11/15 08:21:05;;;;;;;11.77;7.30;;;8.60;99.90;;;;;;4902136;29;20095;-70
2022/11/15 08:23:51;;;;;;;13.38;7.25;;;8.70;99.90;;;;;;4911386;29;20582;-70
2022/11/15 08:26:37;;;;;;;13.38;7.57;;;8.80;99.90;;;;;;4899974;29;20044;-69
2022/11/15 08:29:23;;;;;;;18.02;11.70;;;8.90;99.90;;;;;;4912490;29;20062;-70
2022/11/15 08:32:10;;;;;;;16.90;11.10;;;9.00;99.90;;;;;;4883545;29;20056;-69
2022/11/15 08:34:56;;;;;;;13.82;9.68;;;9.20;99.90;;;;;;4913206;29;20040;-70
2022/11/15 08:37:42;;;;;;;15.85;10.20;;;9.40;99.90;;;;;;4908296;29;20067;-70
2022/11/15 08:40:28;;;;;;;12.82;7.63;;;9.50;99.90;;;;;;4911513;29;20055;-69
2022/11/15 08:43:14;;;;;;;13.25;8.05;;;9.60;99.90;;;;;;4912383;29;20040;-69
2022/11/15 08:45:59;;;;;;;13.27;8.05;;;9.80;99.90;;;;;;4902050;29;20058;-68
2022/11/15 08:48:45;;;;;;;12.95;8.52;;;10.00;99.90;;;;;;4908407;29;20048;-69
2022/11/15 08:51:31;;;;;;;13.02;9.15;;;10.20;99.90;;;;;;4906043;29;20066;-68
2022/11/15 08:54:17;;;;;;;11.65;7.88;;;10.40;99.90;;;;;;4912953;29;20053;-68
2022/11/15 08:57:03;;;;;;;10.75;7.30;;;10.50;99.90;;;;;;4913504;29;20044;-69
2022/11/15 08:59:49;;;;;;;10.82;7.70;;;10.70;99.90;;;;;;4907209;29;20137;-70
2022/11/15 09:02:37;;;;;;;9.95;7.95;;;10.90;99.90;;;;;;4908821;29;20047;-70
2022/11/15 09:05:23;;;;;;;9.43;7.00;;;11.00;99.90;;;;;;4912255;29;20044;-70
2022/11/15 09:08:09;;;;;;;10.18;6.68;;;11.20;99.90;;;;;;4906956;29;20553;-70
2022/11/15 09:11:17;;;;;;;11.60;7.30;;;11.40;99.90;;;;;;4907573;29;20047;-70
2022/11/15 09:14:03;;;;;;;14.20;9.45;;;11.50;99.90;;;;;;4911154;29;20044;-70
2022/11/15 09:16:49;;;;;;;14.27;8.80;;;11.60;99.90;;;;;;4912177;29;20042;-69
2022/11/15 09:19:36;;;;;;;19.63;9.93;;;11.70;99.90;;;;;;4907614;29;20051;-69
2022/11/15 09:22:22;;;;;;;12.85;7.72;;;11.90;99.90;;;;;;4910695;29;20414;-69
2022/11/15 09:25:08;;;;;;;8.27;6.47;;;12.00;99.90;;;;;;4895270;29;20040;-68
2022/11/15 09:27:56;;;;;;;10.02;7.10;;;12.10;99.90;;;;;;4907681;29;20047;-69
2022/11/15 09:30:42;;;;;;;16.52;12.55;;;12.20;99.90;;;;;;4910805;29;20084;-69
2022/11/15 09:33:29;;;;;;;13.07;9.05;;;12.20;99.90;;;;;;4908966;29;20503;-67
2022/11/15 09:36:16;;;;;;;24.17;14.38;;;12.40;99.90;;;;;;4894735;29;20416;-68
2022/11/15 09:39:02;;;;;;;9.82;7.35;;;12.50;99.90;;;;;;4909332;29;20459;-69
2022/11/15 09:42:12;;;;;;;11.25;6.95;;;12.60;99.90;;;;;;4906300;29;20052;-67
2022/11/15 09:45:17;;;;;;;16.92;10.95;;;12.70;99.90;;;;;;4917648;29;20110;-69
2022/11/15 09:48:25;;;;;;;9.48;7.32;;;12.80;99.90;;;;;;4910473;29;20499;-68
2022/11/15 09:51:28;;;;;;;7.97;6.40;;;12.80;99.90;;;;;;4903855;29;20063;-68
2022/11/15 09:54:27;;;;;;;8.10;6.80;;;13.00;99.90;;;;;;4884018;29;20049;-69
2022/11/15 09:57:41;;;;;;;9.95;7.00;;;13.10;99.90;;;;;;4898674;29;20107;-68
2022/11/15 10:00:27;;;;;;;12.57;6.63;;;13.30;99.90;;;;;;4904945;29;20068;-68
2022/11/15 10:03:34;;;;;;;10.40;7.32;;;13.40;99.90;;;;;;4860556;29;20060;-68
2022/11/15 10:06:04;;;;;;;12.93;9.75;;;13.60;99.90;;;;;;4886397;29;20790;-67
2022/11/15 10:08:44;;;;;;;12.88;10.48;;;13.80;99.90;;;;;;4889496;29;20082;-67
2022/11/15 10:11:18;;;;;;;18.88;10.43;;;14.00;99.90;;;;;;4902408;29;20044;-69
2022/11/15 10:14:18;;;;;;;13.17;8.30;;;14.00;99.90;;;;;;4908649;29;20048;-68
2022/11/15 10:17:13;;;;;;;11.38;7.70;;;14.30;99.90;;;;;;4907385;29;20044;-68
2022/11/15 10:19:56;;;;;;;8.65;6.72;;;14.40;99.90;;;;;;4911102;29;20044;-68
2022/11/15 10:22:49;;;;;;;9.10;6.78;;;14.50;99.90;;;;;;4891439;29;20040;-67
2022/11/15 10:25:29;;;;;;;9.07;7.10;;;14.70;99.90;;;;;;4893124;29;20588;-69
2022/11/15 10:28:21;;;;;;;8.50;6.78;;;15.00;99.90;;;;;;4908273;29;20055;-69
2022/11/15 10:30:54;;;;;;;10.63;6.80;;;15.60;99.90;;;;;;4910754;29;20934;-69
2022/11/15 10:33:38;;;;;;;8.35;7.20;;;17.00;99.90;;;;;;4912404;29;20040;-69
2022/11/15 10:36:09;;;;;;;12.48;9.00;;;18.30;99.90;;;;;;4914748;29;20483;-69
2022/11/15 10:38:57;;;;;;;10.57;8.00;;;18.50;99.90;;;;;;4913255;29;20135;-69
2022/11/15 10:41:27;;;;;;;8.07;7.20;;;18.20;99.90;;;;;;4914614;29;20067;-68
2022/11/15 10:44:06;;;;;;;8.15;6.85;;;18.40;99.90;;;;;;4913915;29;20419;-68
2022/11/15 10:46:35;;;;;;;8.65;7.35;;;18.50;99.90;;;;;;4913173;29;20490;-69
2022/11/15 10:49:30;;;;;;;8.18;7.30;;;18.80;99.90;;;;;;4882540;29;20033;-69
2022/11/15 10:52:19;;;;;;;12.73;7.47;;;19.10;99.90;;;;;;4914142;29;20048;-69
2022/11/15 10:55:01;;;;;;;9.23;7.13;;;19.70;99.90;;;;;;4913009;29;20119;-66
2022/11/15 10:57:32;;;;;;;8.88;6.45;;;20.00;99.90;;;;;;4897572;29;20123;-68
2022/11/15 11:00:13;;;;;;;6.65;6.03;;;20.20;99.90;;;;;;4914247;29;20055;-69
2022/11/15 11:02:52;;;;;;;7.80;7.00;;;20.60;99.90;;;;;;4914053;29;20040;-69
2022/11/15 11:05:36;;;;;;;7.43;6.55;;;20.90;99.90;;;;;;4912330;29;20054;-69
2022/11/15 11:08:12;;;;;;;7.50;6.20;;;21.00;99.90;;;;;;4913118;29;20036;-70
2022/11/15 11:10:55;;;;;;;7.20;6.50;;;21.30;99.90;;;;;;4914809;29;20039;-69
2022/11/15 11:13:33;;;;;;;6.22;5.63;;;21.70;99.90;;;;;;4912971;29;20312;-69
2022/11/15 11:16:19;;;;;;;6.20;5.63;;;21.50;99.90;;;;;;4915569;29;20043;-68
2022/11/15 11:19:30;;;;;;;6.40;5.80;;;21.60;99.90;;;;;;4915033;29;20480;-69
2022/11/15 11:22:19;;;;;;;7.20;6.03;;;21.70;99.90;;;;;;4913672;29;20127;-69
2022/11/15 11:25:07;;;;;;;9.73;7.82;;;22.10;99.90;;;;;;4903897;29;20051;-68
2022/11/15 11:27:56;;;;;;;7.10;6.40;;;22.30;98.50;;;;;;4914656;29;20068;-68
2022/11/15 11:30:47;;;;;;;7.60;6.10;;;22.40;97.90;;;;;;4912549;29;20482;-68
2022/11/15 11:33:31;;;;;;;7.47;6.03;;;22.80;97.40;;;;;;4910570;29;20048;-71
2022/11/15 11:36:25;;;;;;;6.50;5.90;;;23.30;95.80;;;;;;4911736;29;20066;-69
2022/11/15 11:39:16;;;;;;;5.90;5.40;;;22.60;95.40;;;;;;4911481;29;20040;-68
2022/11/15 11:42:03;;;;;;;7.10;5.53;;;22.80;95.60;;;;;;4910259;29;20099;-67
2022/11/15 11:44:33;;;;;;;9.73;8.73;;;22.90;94.70;;;;;;4911313;29;20059;-69
2022/11/15 11:47:18;;;;;;;6.15;5.55;;;22.50;95.00;;;;;;4913012;29;20052;-68
2022/11/15 11:49:55;;;;;;;6.97;5.85;;;22.40;95.00;;;;;;4913503;29;20059;-67
2022/11/15 11:52:56;;;;;;;7.00;6.30;;;23.30;94.60;;;;;;4909297;29;20059;-68
2022/11/15 11:55:42;;;;;;;6.65;6.05;;;23.30;94.10;;;;;;4908385;29;20040;-67
2022/11/15 11:58:17;;;;;;;7.15;5.93;;;23.30;93.60;;;;;;4913052;29;20056;-68
2022/11/15 12:01:07;;;;;;;6.68;6.00;;;23.70;93.10;;;;;;4911930;29;20048;-69
2022/11/15 12:03:40;;;;;;;8.65;5.80;;;24.20;92.20;;;;;;4910006;29;20501;-69
2022/11/15 12:06:36;;;;;;;6.75;5.88;;;24.00;91.90;;;;;;4910951;29;20054;-68
2022/11/15 12:09:37;;;;;;;5.97;5.47;;;24.00;91.70;;;;;;4896364;29;20032;-68
2022/11/15 12:12:18;;;;;;;5.75;5.15;;;24.20;91.00;;;;;;4911730;29;20044;-67
2022/11/15 12:14:48;;;;;;;;;;;23.90;90.80;;;;;;4915327;29;20095;-67
2022/11/15 12:17:21;;;;;;;6.00;5.50;;;23.60;91.40;;;;;;4914805;29;20308;-68
2022/11/15 12:19:49;;;;;;;7.93;5.93;;;23.80;91.40;;;;;;4913666;29;20062;-67
2022/11/15 12:22:40;;;;;;;5.78;5.22;;;24.20;91.00;;;;;;4897674;29;20496;-68
2022/11/15 12:25:19;;;;;;;7.30;5.03;;;24.40;90.30;;;;;;4912167;29;20044;-68
2022/11/15 12:28:06;;;;;;;6.47;5.43;;;24.30;90.70;;;;;;4913328;29;20146;-68
2022/11/15 12:30:42;;;;;;;6.10;5.40;;;24.20;90.50;;;;;;4914632;29;20066;-68
2022/11/15 12:33:31;;;;;;;8.82;5.90;;;24.10;90.30;;;;;;4912916;29;20123;-67
2022/11/15 12:36:00;;;;;;;6.35;5.45;;;23.60;90.80;;;;;;4912238;29;20054;-67
2022/11/15 12:38:50;;;;;;;7.28;5.57;;;23.20;91.20;;;;;;4910261;29;20550;-67
2022/11/15 12:41:18;;;;;;;6.13;5.50;;;23.00;91.80;;;;;;4888972;29;20130;-67
2022/11/15 12:43:47;;;;;;;8.23;7.25;;;23.00;91.80;;;;;;4910606;29;20595;-67
2022/11/15 12:46:30;;;;;;;13.07;10.07;;;23.10;91.90;;;;;;4913465;29;20052;-68
2022/11/15 12:49:07;;;;;;;6.78;6.07;;;22.90;92.00;;;;;;4914483;29;20147;-70
2022/11/15 12:51:43;;;;;;;6.00;5.40;;;22.40;92.00;;;;;;4913858;29;20047;-69
2022/11/15 12:54:23;;;;;;;9.13;5.43;;;22.30;92.10;;;;;;4919849;29;20396;-69
2022/11/15 12:57:02;;;;;;;6.97;5.93;;;22.20;92.40;;;;;;4910866;29;20056;-68
2022/11/15 12:59:52;;;;;;;6.93;5.30;;;21.90;92.70;;;;;;4911915;29;20080;-68
2022/11/15 13:02:36;;;;;;;6.35;5.20;;;21.40;93.20;;;;;;4910609;29;20130;-67
2022/11/15 13:05:15;;;;;;;8.50;5.72;;;20.80;94.00;;;;;;4909761;29;20056;-67
2022/11/15 13:07:42;;;;;;;9.65;5.93;;;20.30;94.60;;;;;;4909540;29;20409;-67
2022/11/15 13:10:09;;;;;;;6.47;5.72;;;19.80;95.50;;;;;;4909670;29;20044;-68
2022/11/15 13:12:46;;;;;;;6.43;5.82;;;19.30;96.50;;;;;;4911050;29;20088;-68
2022/11/15 13:15:14;;;;;;;5.85;5.28;;;18.80;97.10;;;;;;4912068;29;20059;-67
2022/11/15 13:17:46;;;;;;;6.28;5.68;;;18.50;97.80;;;;;;4912940;29;20083;-69
2022/11/15 13:20:14;;;;;;;7.00;6.00;;;18.20;98.90;;;;;;4889854;29;20136;-70
2022/11/15 13:23:13;;;;;;;6.57;5.57;;;18.00;99.50;;;;;;4909851;29;20399;-70
2022/11/15 13:25:43;;;;;;;7.57;5.95;;;17.90;99.90;;;;;;4909678;29;20072;-69
2022/11/15 13:28:17;;;;;;;7.22;6.50;;;17.70;99.90;;;;;;4904463;29;20044;-70
2022/11/15 13:30:47;;;;;;;10.07;7.22;;;17.60;99.90;;;;;;4896447;29;20047;-70
2022/11/15 13:33:36;;;;;;;9.30;6.97;;;17.50;99.90;;;;;;4910804;29;20507;-70
2022/11/15 13:36:08;;;;;;;7.47;5.75;;;17.60;99.90;;;;;;4918625;29;20183;-69
2022/11/15 13:38:38;;;;;;;8.32;6.80;;;17.70;99.90;;;;;;4909537;29;20090;-69
2022/11/15 13:41:21;;;;;;;7.60;5.65;;;18.00;99.90;;;;;;4916318;29;20047;-69
2022/11/15 13:43:50;;;;;;;9.75;5.90;;;18.00;99.90;;;;;;4917355;29;20040;-69
2022/11/15 13:46:24;;;;;;;6.07;5.43;;;18.00;99.90;;;;;;4915954;29;20127;-70
2022/11/15 13:48:55;;;;;;;6.97;6.10;;;18.30;99.90;;;;;;4915743;29;20048;-69
2022/11/15 13:51:54;;;;;;;7.65;5.80;;;18.80;99.90;;;;;;4918468;29;20044;-69
2022/11/15 13:54:44;;;;;;;7.05;6.00;;;19.90;99.90;;;;;;4916607;29;20127;-70
2022/11/15 13:57:14;;;;;;;6.30;5.60;;;20.80;98.90;;;;;;4918661;29;20055;-68
2022/11/15 13:59:51;;;;;;;7.40;6.05;;;21.80;97.70;;;;;;4918275;29;20036;-69
2022/11/15 14:02:24;;;;;;;14.45;9.05;;;22.60;96.50;;;;;;4934302;29;20415;-68
2022/11/15 14:04:55;;;;;;;8.20;6.38;;;22.70;95.90;;;;;;4922877;29;20044;-70
2022/11/15 14:07:26;;;;;;;8.75;7.53;;;23.00;95.40;;;;;;4916851;29;20162;-70
2022/11/15 14:09:54;;;;;;;8.40;6.65;;;23.20;95.40;;;;;;4916716;29;20056;-70
2022/11/15 14:12:31;;;;;;;13.15;9.23;;;23.30;94.80;;;;;;4916306;29;20127;-70
2022/11/15 14:15:17;;;;;;;9.68;7.22;;;23.90;94.10;;;;;;4918579;29;20052;-70
2022/11/15 14:17:45;;;;;;;15.13;11.20;;;24.10;93.90;;;;;;4916891;29;20028;-69
2022/11/15 14:20:25;;;;;;;10.90;7.97;;;24.50;93.30;;;;;;4916379;29;20036;-70
2022/11/15 14:22:58;;;;;;;10.80;7.05;;;24.40;92.90;;;;;;4913654;29;20146;-69
2022/11/15 14:25:31;;;;;;;8.38;6.88;;;23.80;93.10;;;;;;4916952;29;20048;-69
2022/11/15 14:28:24;;;;;;;12.95;8.80;;;23.50;93.30;;;;;;4919438;29;20048;-69
2022/11/15 14:30:53;;;;;;;9.98;6.53;;;22.90;94.20;;;;;;4913335;29;20060;-71
2022/11/15 14:33:23;;;;;;;9.65;6.10;;;22.30;94.70;;;;;;4919293;29;20095;-70